createdAt,value
2022-11-26T00:01:35.262Z,88.47
2022-11-26T00:03:37.208Z,88.92
2022-11-26T00:05:43.217Z,88.37
2022-11-26T00:07:58.635Z,88.46
2022-11-26T00:10:02.251Z,88.27
2022-11-26T00:12:20.285Z,88.59
2022-11-26T00:14:22.076Z,88.81
2022-11-26T00:16:24.046Z,88.76
2022-11-26T00:18:26.995Z,88.91
2022-11-26T00:20:31.828Z,88.81
2022-11-26T00:22:40.412Z,88.83
2022-11-26T00:24:45.588Z,88.88
2022-11-26T00:26:47.430Z,88.91
2022-11-26T00:29:00.452Z,88.55
2022-11-26T00:31:07.005Z,88.68
2022-11-26T00:33:09.893Z,88.77
2022-11-26T00:35:13.329Z,88.74
2022-11-26T00:37:24.895Z,88.80
2022-11-26T00:39:32.543Z,88.56
2022-11-26T00:41:38.415Z,88.43
2022-11-26T00:43:42.367Z,88.65
2022-11-26T00:45:44.517Z,88.59
2022-11-26T00:47:47.503Z,88.93
2022-11-26T00:49:54.366Z,88.86
2022-11-26T00:51:58.252Z,88.58
2022-11-26T00:54:04.192Z,88.26
2022-11-26T00:56:06.234Z,88.67
2022-11-26T00:58:21.399Z,88.87
2022-11-26T01:00:32.814Z,88.78
2022-11-26T01:02:35.713Z,88.39
2022-11-26T01:04:37.913Z,88.74
2022-11-26T01:06:43.350Z,88.59
2022-11-26T01:08:46.791Z,88.81
2022-11-26T01:10:55.816Z,88.62
2022-11-26T01:13:07.015Z,88.81
2022-11-26T01:15:09.170Z,88.83
2022-11-26T01:17:12.348Z,88.71
2022-11-26T01:19:15.893Z,89.01
2022-11-26T01:21:18.837Z,88.95
2022-11-26T01:23:21.096Z,88.95
2022-11-26T01:25:24.651Z,88.49
2022-11-26T01:27:28.514Z,88.86
2022-11-26T01:29:30.373Z,88.95
2022-11-26T01:31:33.277Z,88.73
2022-11-26T01:33:35.162Z,88.96
2022-11-26T01:35:41.079Z,88.93
2022-11-26T01:37:43.789Z,88.67
2022-11-26T01:39:49.717Z,88.95
2022-11-26T01:42:00.257Z,88.86
2022-11-26T01:44:07.749Z,88.70
2022-11-26T01:46:18.299Z,88.85
2022-11-26T01:48:28.284Z,88.91
2022-11-26T01:50:33.229Z,88.40
2022-11-26T01:52:37.114Z,88.60
2022-11-26T01:54:49.349Z,88.88
2022-11-26T01:56:57.210Z,88.50
2022-11-26T01:59:08.699Z,88.93
2022-11-26T02:01:16.839Z,89.04
2022-11-26T02:03:20.859Z,88.51
2022-11-26T02:05:28.668Z,89.17
2022-11-26T02:07:30.804Z,88.62
2022-11-26T02:09:33.669Z,89.10
2022-11-26T02:11:36.327Z,88.90
2022-11-26T02:13:38.193Z,88.64
2022-11-26T02:15:51.478Z,88.70
2022-11-26T02:18:03.308Z,88.97
2022-11-26T02:20:35.554Z,88.58
2022-11-26T02:22:49.797Z,88.59
2022-11-26T02:25:03.013Z,88.70
2022-11-26T02:27:26.363Z,88.80
2022-11-26T02:29:46.510Z,88.58
2022-11-26T02:31:50.352Z,88.42
2022-11-26T02:34:11.918Z,88.92
2022-11-26T02:36:21.495Z,89.13
2022-11-26T02:38:33.302Z,88.94
2022-11-26T02:40:35.372Z,88.89
2022-11-26T02:42:37.413Z,88.65
2022-11-26T02:44:45.133Z,88.91
2022-11-26T02:46:49.963Z,88.87
2022-11-26T02:48:53.173Z,88.87
2022-11-26T02:51:12.464Z,88.52
2022-11-26T02:53:19.369Z,88.97
2022-11-26T02:55:27.135Z,89.00
2022-11-26T02:57:37.053Z,88.85
2022-11-26T02:59:39.753Z,88.88
2022-11-26T03:01:52.944Z,89.06
2022-11-26T03:04:00.857Z,89.32
2022-11-26T03:06:10.063Z,89.09
2022-11-26T03:08:13.927Z,88.71
2022-11-26T03:10:16.995Z,88.77
2022-11-26T03:12:22.056Z,88.75
2022-11-26T03:14:23.930Z,89.11
2022-11-26T03:16:26.089Z,88.71
2022-11-26T03:18:28.165Z,88.41
2022-11-26T03:20:34.208Z,88.88
2022-11-26T03:22:38.149Z,88.44
2022-11-26T03:24:46.287Z,88.16
2022-11-26T03:26:50.237Z,88.36
2022-11-26T03:28:54.149Z,88.41
2022-11-26T03:30:55.989Z,88.41
2022-11-26T03:32:59.919Z,88.68
2022-11-26T03:35:02.953Z,88.32
2022-11-26T03:37:05.799Z,88.33
2022-11-26T03:39:08.652Z,88.17
2022-11-26T03:41:10.439Z,88.05
2022-11-26T03:43:12.301Z,87.64
2022-11-26T03:45:17.264Z,88.14
2022-11-26T03:47:19.241Z,87.86
2022-11-26T03:49:22.139Z,87.67
2022-11-26T03:51:23.960Z,87.81
2022-11-26T03:53:26.836Z,88.20
2022-11-26T03:55:28.719Z,87.34
2022-11-26T03:57:32.604Z,87.23
2022-11-26T03:59:37.757Z,87.16
2022-11-26T04:01:39.891Z,87.65
2022-11-26T04:03:42.873Z,87.19
2022-11-26T04:05:45.765Z,87.53
2022-11-26T04:07:50.771Z,87.32
2022-11-26T04:09:54.778Z,86.89
2022-11-26T04:11:56.645Z,87.14
2022-11-26T04:14:01.571Z,86.82
2022-11-26T04:16:03.468Z,87.49
2022-11-26T04:18:05.362Z,87.28
2022-11-26T04:20:09.789Z,87.42
2022-11-26T04:22:12.608Z,87.15
2022-11-26T04:24:15.475Z,87.70
2022-11-26T04:26:17.320Z,86.93
2022-11-26T04:28:20.142Z,87.44
2022-11-26T04:30:21.995Z,87.47
2022-11-26T04:32:25.972Z,87.29
2022-11-26T04:34:28.083Z,87.09
2022-11-26T04:36:32.671Z,87.35
2022-11-26T04:38:35.660Z,87.25
2022-11-26T04:40:37.738Z,87.36
2022-11-26T04:42:39.685Z,87.31
2022-11-26T04:44:41.631Z,87.20
2022-11-26T04:46:45.572Z,87.09
2022-11-26T04:48:48.375Z,87.14
2022-11-26T04:50:50.457Z,87.21
2022-11-26T04:52:52.365Z,87.18
2022-11-26T04:54:54.348Z,87.33
2022-11-26T04:56:58.196Z,86.82
2022-11-26T04:59:01.999Z,86.82
2022-11-26T05:01:04.169Z,86.52
2022-11-26T05:03:06.162Z,86.43
2022-11-26T05:05:08.422Z,86.27
2022-11-26T05:07:10.756Z,86.01
2022-11-26T05:09:14.657Z,85.71
2022-11-26T05:11:17.463Z,85.34
2022-11-26T05:13:20.361Z,84.80
2022-11-26T05:15:23.273Z,84.66
2022-11-26T05:17:25.162Z,84.82
2022-11-26T05:19:27.093Z,84.63
2022-11-26T05:21:29.007Z,84.63
2022-11-26T05:23:30.804Z,85.00
2022-11-26T05:25:32.709Z,85.28
2022-11-26T05:27:34.593Z,84.90
2022-11-26T05:29:39.373Z,85.16
2022-11-26T05:31:42.226Z,85.41
2022-11-26T05:33:45.162Z,85.62
2022-11-26T05:35:46.967Z,85.26
2022-11-26T05:37:48.796Z,84.85
2022-11-26T05:39:50.609Z,84.85
2022-11-26T05:41:52.400Z,84.63
2022-11-26T05:43:54.322Z,84.58
2022-11-26T05:45:57.287Z,84.98
2022-11-26T05:48:02.242Z,84.37
2022-11-26T05:50:05.629Z,84.40
2022-11-26T05:52:08.455Z,84.70
2022-11-26T05:54:19.148Z,84.53
2022-11-26T05:56:25.085Z,84.37
2022-11-26T05:58:30.015Z,84.71
2022-11-26T06:00:32.893Z,84.79
2022-11-26T06:02:34.836Z,84.71
2022-11-26T06:04:45.432Z,84.94
2022-11-26T06:06:49.380Z,84.96
2022-11-26T06:08:52.280Z,84.83
2022-11-26T06:10:56.258Z,84.94
2022-11-26T06:12:58.119Z,84.77
2022-11-26T06:15:00.033Z,84.80
2022-11-26T06:17:02.952Z,84.68
2022-11-26T06:19:04.868Z,84.71
2022-11-26T06:21:08.583Z,84.70
2022-11-26T06:23:10.832Z,84.37
2022-11-26T06:25:18.504Z,84.31
2022-11-26T06:27:20.289Z,84.12
2022-11-26T06:29:27.570Z,84.32
2022-11-26T06:31:29.944Z,84.85
2022-11-26T06:33:36.577Z,84.59
2022-11-26T06:35:38.536Z,84.62
2022-11-26T06:37:41.690Z,84.78
2022-11-26T06:39:45.548Z,84.78
2022-11-26T06:41:47.437Z,84.96
2022-11-26T06:43:49.323Z,85.07
2022-11-26T06:46:06.166Z,84.95
2022-11-26T06:48:08.171Z,84.94
2022-11-26T06:50:25.198Z,84.75
2022-11-26T06:52:36.873Z,85.05
2022-11-26T06:54:40.717Z,85.30
2022-11-26T06:56:50.782Z,84.37
2022-11-26T06:58:57.423Z,84.48
2022-11-26T07:01:21.491Z,84.94
2022-11-26T07:03:29.306Z,84.83
2022-11-26T07:05:38.017Z,84.74
2022-11-26T07:07:40.509Z,84.86
2022-11-26T07:09:42.629Z,84.71
2022-11-26T07:11:44.688Z,84.83
2022-11-26T07:14:02.178Z,84.33
2022-11-26T07:16:05.979Z,83.75
2022-11-26T07:18:08.935Z,83.96
2022-11-26T07:20:16.081Z,83.67
2022-11-26T07:22:28.030Z,83.81
2022-11-26T07:24:31.203Z,83.62
2022-11-26T07:26:35.098Z,83.31
2022-11-26T07:28:47.431Z,83.61
2022-11-26T07:30:50.277Z,84.03
2022-11-26T07:32:54.104Z,83.63
2022-11-26T07:34:56.019Z,83.26
2022-11-26T07:36:58.881Z,83.39
2022-11-26T07:39:03.521Z,83.58
2022-11-26T07:41:10.199Z,83.60
2022-11-26T07:43:12.198Z,83.25
2022-11-26T07:45:14.194Z,83.27
2022-11-26T07:47:16.059Z,83.23
2022-11-26T07:49:17.996Z,83.32
2022-11-26T07:51:22.308Z,83.24
2022-11-26T07:53:28.631Z,83.62
2022-11-26T07:55:31.486Z,83.71
2022-11-26T07:57:35.399Z,83.60
2022-11-26T07:59:38.332Z,83.15
2022-11-26T08:01:43.189Z,83.66
2022-11-26T08:03:47.994Z,83.68
2022-11-26T08:05:50.941Z,83.58
2022-11-26T08:07:56.995Z,83.68
2022-11-26T08:10:06.714Z,83.68
2022-11-26T08:12:08.602Z,83.56
2022-11-26T08:14:12.830Z,83.03
2022-11-26T08:16:22.910Z,83.02
2022-11-26T08:18:24.845Z,83.09
2022-11-26T08:20:29.051Z,83.23
2022-11-26T08:22:32.240Z,82.64
2022-11-26T08:24:34.204Z,81.56
2022-11-26T08:26:39.849Z,81.30
2022-11-26T08:28:45.778Z,81.99
2022-11-26T08:31:01.847Z,82.05
2022-11-26T08:33:04.976Z,82.07
2022-11-26T08:35:07.161Z,81.27
2022-11-26T08:37:09.112Z,81.64
2022-11-26T08:39:17.564Z,82.17
2022-11-26T08:41:19.899Z,82.81
2022-11-26T08:43:34.546Z,82.65
2022-11-26T08:45:44.658Z,82.16
2022-11-26T08:47:46.601Z,81.95
2022-11-26T08:49:51.617Z,81.94
2022-11-26T08:51:57.397Z,81.16
2022-11-26T08:53:59.448Z,81.76
2022-11-26T08:56:10.993Z,82.36
2022-11-26T08:58:15.240Z,81.73
2022-11-26T09:00:18.571Z,81.62
2022-11-26T09:02:20.606Z,80.99
2022-11-26T09:04:22.618Z,80.38
2022-11-26T09:06:26.964Z,80.06
2022-11-26T09:08:29.929Z,80.21
2022-11-26T09:10:31.851Z,80.96
2022-11-26T09:12:33.727Z,80.94
2022-11-26T09:14:39.173Z,80.85
2022-11-26T09:16:43.892Z,80.51
2022-11-26T09:18:52.203Z,80.61
2022-11-26T09:20:57.178Z,80.82
2022-11-26T09:22:59.311Z,80.38
2022-11-26T09:25:01.277Z,80.71
2022-11-26T09:27:12.160Z,80.22
2022-11-26T09:29:16.087Z,80.02
2022-11-26T09:31:21.214Z,80.03
2022-11-26T09:33:30.001Z,80.17
2022-11-26T09:35:32.241Z,80.42
2022-11-26T09:37:36.157Z,80.50
2022-11-26T09:39:45.154Z,80.42
2022-11-26T09:42:14.731Z,80.43
2022-11-26T09:44:40.904Z,80.89
2022-11-26T09:47:12.192Z,80.76
2022-11-26T09:49:16.104Z,79.45
2022-11-26T09:51:20.663Z,79.09
2022-11-26T09:53:41.798Z,78.55
2022-11-26T09:55:47.891Z,78.87
2022-11-26T09:58:33.076Z,79.01
2022-11-26T10:00:42.818Z,79.22
2022-11-26T10:02:44.741Z,79.05
2022-11-26T10:04:47.218Z,79.55
2022-11-26T10:06:59.275Z,80.00
2022-11-26T10:09:22.327Z,79.21
2022-11-26T10:11:55.876Z,79.74
2022-11-26T10:14:09.965Z,79.18
2022-11-26T10:16:40.540Z,79.63
2022-11-26T10:19:05.540Z,78.99
2022-11-26T10:21:18.269Z,80.16
2022-11-26T10:23:36.150Z,79.76
2022-11-26T10:25:54.751Z,80.29
2022-11-26T10:27:58.527Z,80.11
2022-11-26T10:30:09.730Z,79.14
2022-11-26T10:32:27.472Z,78.66
2022-11-26T10:34:46.416Z,79.36
2022-11-26T10:36:49.582Z,79.88
2022-11-26T10:38:52.956Z,78.79
2022-11-26T10:40:54.814Z,79.24
2022-11-26T10:42:59.578Z,79.00
2022-11-26T10:45:21.128Z,78.78
2022-11-26T10:47:32.588Z,78.94
2022-11-26T10:49:34.465Z,78.95
2022-11-26T10:51:38.689Z,78.00
2022-11-26T10:54:01.587Z,78.70
2022-11-26T10:56:07.569Z,78.32
2022-11-26T10:58:19.820Z,79.17
2022-11-26T11:00:27.692Z,78.72
2022-11-26T11:02:41.475Z,78.66
2022-11-26T11:05:06.228Z,79.15
2022-11-26T11:07:29.696Z,77.33
2022-11-26T11:09:35.459Z,78.10
2022-11-26T11:11:37.227Z,78.88
2022-11-26T11:13:44.940Z,78.72
2022-11-26T11:15:46.880Z,78.21
2022-11-26T11:18:13.391Z,78.90
2022-11-26T11:20:15.267Z,78.33
2022-11-26T11:22:21.171Z,78.61
2022-11-26T11:24:30.027Z,78.10
2022-11-26T11:26:40.376Z,77.83
2022-11-26T11:28:48.575Z,78.12
2022-11-26T11:31:02.701Z,78.39
2022-11-26T11:33:17.013Z,77.74
2022-11-26T11:35:26.186Z,77.72
2022-11-26T11:37:28.446Z,78.18
2022-11-26T11:39:35.490Z,78.70
2022-11-26T11:41:38.415Z,79.22
2022-11-26T11:43:42.291Z,78.86
2022-11-26T11:45:55.946Z,77.73
2022-11-26T11:48:04.335Z,77.71
2022-11-26T11:50:21.262Z,77.98
2022-11-26T11:52:34.905Z,78.28
2022-11-26T11:54:57.150Z,78.09
2022-11-26T11:57:07.369Z,77.75
2022-11-26T12:00:09.792Z,77.77
2022-11-26T12:02:17.356Z,78.56
2022-11-26T12:04:38.276Z,78.45
2022-11-26T12:06:49.339Z,78.59
2022-11-26T12:09:00.043Z,78.13
2022-11-26T12:11:22.558Z,77.83
2022-11-26T12:13:27.029Z,77.96
2022-11-26T12:15:34.035Z,78.71
2022-11-26T12:17:47.699Z,78.35
2022-11-26T12:20:04.613Z,78.33
2022-11-26T12:22:30.060Z,78.68
2022-11-26T12:25:01.842Z,78.74
2022-11-26T12:27:52.773Z,78.00
2022-11-26T12:30:14.934Z,77.34
2022-11-26T12:32:21.987Z,78.11
2022-11-26T12:34:31.754Z,77.86
2022-11-26T12:36:51.366Z,77.98
2022-11-26T12:38:57.776Z,78.35
2022-11-26T12:41:06.839Z,78.32
2022-11-26T12:43:19.208Z,77.60
2022-11-26T12:45:39.114Z,78.03
2022-11-26T12:47:52.066Z,78.66
2022-11-26T12:50:09.480Z,78.08
2022-11-26T12:52:14.067Z,77.81
2022-11-26T12:54:24.098Z,78.23
2022-11-26T12:56:32.535Z,78.00
2022-11-26T12:59:06.165Z,78.13
2022-11-26T13:01:14.053Z,78.14
2022-11-26T13:03:32.411Z,78.18
2022-11-26T13:06:16.241Z,78.13
2022-11-26T13:08:20.572Z,78.19
2022-11-26T13:10:28.340Z,78.20
2022-11-26T13:12:46.901Z,77.69
2022-11-26T13:14:52.357Z,77.83
2022-11-26T13:17:14.298Z,77.94
2022-11-26T13:19:20.439Z,78.21
2022-11-26T13:21:46.212Z,78.12
2022-11-26T13:23:51.182Z,77.70
2022-11-26T13:26:36.711Z,78.25
2022-11-26T13:28:56.022Z,78.45
2022-11-26T13:31:06.253Z,78.02
2022-11-26T13:33:23.049Z,78.40
2022-11-26T13:35:57.287Z,77.71
2022-11-26T13:38:20.629Z,78.23
2022-11-26T13:40:53.593Z,78.56
2022-11-26T13:43:43.556Z,78.50
2022-11-26T13:46:16.451Z,77.90
2022-11-26T13:48:43.014Z,78.37
2022-11-26T13:50:53.099Z,78.22
2022-11-26T13:53:14.381Z,77.99
2022-11-26T13:55:22.739Z,78.45
2022-11-26T13:57:31.826Z,77.88
2022-11-26T13:59:34.817Z,78.34
2022-11-26T14:01:43.335Z,77.90
2022-11-26T14:03:49.048Z,77.54
2022-11-26T14:05:50.926Z,77.46
2022-11-26T14:08:38.622Z,78.16
2022-11-26T14:10:42.759Z,77.48
2022-11-26T14:13:02.859Z,77.60
2022-11-26T14:15:41.247Z,77.70
2022-11-26T14:17:57.214Z,77.68
2022-11-26T14:20:01.093Z,77.76
2022-11-26T14:22:04.004Z,77.79
2022-11-26T14:24:05.968Z,77.74
2022-11-26T14:26:12.599Z,77.29
2022-11-26T14:28:16.512Z,76.82
2022-11-26T14:30:27.534Z,77.22
2022-11-26T14:32:34.052Z,77.21
2022-11-26T14:34:47.664Z,76.73
2022-11-26T14:37:00.236Z,77.07
2022-11-26T14:39:09.397Z,77.34
2022-11-26T14:41:18.074Z,77.31
2022-11-26T14:43:20.337Z,77.06
2022-11-26T14:45:24.415Z,77.39
2022-11-26T14:47:27.664Z,77.53
2022-11-26T14:49:43.201Z,77.17
2022-11-26T14:51:48.012Z,77.38
2022-11-26T14:53:51.126Z,77.39
2022-11-26T14:55:53.614Z,78.16
2022-11-26T14:58:09.157Z,77.80
2022-11-26T15:00:16.080Z,78.31
2022-11-26T15:02:25.784Z,77.61
2022-11-26T15:04:39.180Z,78.41
2022-11-26T15:06:43.468Z,78.01
2022-11-26T15:08:46.325Z,77.85
2022-11-26T15:10:50.416Z,78.22
2022-11-26T15:12:53.603Z,78.21
2022-11-26T15:14:59.165Z,78.27
2022-11-26T15:17:02.818Z,78.16
2022-11-26T15:19:07.368Z,78.08
2022-11-26T15:21:18.515Z,79.18
2022-11-26T15:23:39.649Z,79.28
2022-11-26T15:25:48.847Z,79.69
2022-11-26T15:28:00.529Z,79.82
2022-11-26T15:30:18.254Z,79.68
2022-11-26T15:32:28.042Z,79.03
2022-11-26T15:34:33.223Z,78.88
2022-11-26T15:36:35.186Z,78.88
2022-11-26T15:39:03.894Z,78.94
2022-11-26T15:41:08.557Z,78.45
2022-11-26T15:43:45.898Z,78.22
2022-11-26T15:45:49.066Z,78.81
2022-11-26T15:47:54.708Z,78.12
2022-11-26T15:50:01.089Z,78.33
2022-11-26T15:52:15.597Z,78.44
2022-11-26T15:54:30.821Z,78.68
2022-11-26T15:56:40.569Z,78.64
2022-11-26T15:58:43.231Z,78.38
2022-11-26T16:00:51.757Z,78.48
2022-11-26T16:02:54.973Z,78.65
2022-11-26T16:05:01.536Z,78.51
2022-11-26T16:07:21.944Z,78.24
2022-11-26T16:09:31.910Z,78.01
2022-11-26T16:11:37.139Z,77.93
2022-11-26T16:13:39.023Z,77.90
2022-11-26T16:16:04.527Z,77.69
2022-11-26T16:18:17.005Z,78.24
2022-11-26T16:20:25.172Z,78.31
2022-11-26T16:22:33.098Z,78.13
2022-11-26T16:24:43.935Z,78.23
2022-11-26T16:26:58.474Z,77.66
2022-11-26T16:29:00.413Z,78.23
2022-11-26T16:31:02.829Z,77.97
2022-11-26T16:33:08.506Z,78.45
2022-11-26T16:35:43.637Z,78.28
2022-11-26T16:37:44.383Z,78.49
2022-11-26T16:39:47.457Z,78.23
2022-11-26T16:41:49.329Z,78.58
2022-11-26T16:43:54.780Z,78.29
2022-11-26T16:45:59.271Z,78.29
2022-11-26T16:48:02.437Z,78.16
2022-11-26T16:50:05.231Z,78.45
2022-11-26T16:52:12.533Z,78.57
2022-11-26T16:54:17.315Z,78.53
2022-11-26T16:56:39.079Z,78.08
2022-11-26T16:58:40.865Z,78.22
2022-11-26T17:00:51.356Z,78.16
2022-11-26T17:02:54.322Z,78.78
2022-11-26T17:04:56.397Z,79.08
2022-11-26T17:06:58.462Z,78.45
2022-11-26T17:09:01.428Z,78.41
2022-11-26T17:11:06.545Z,78.39
2022-11-26T17:13:08.933Z,78.48
2022-11-26T17:15:11.598Z,78.22
2022-11-26T17:17:29.564Z,77.57
2022-11-26T17:19:34.947Z,78.29
2022-11-26T17:21:36.873Z,78.58
2022-11-26T17:23:39.665Z,78.13
2022-11-26T17:25:48.897Z,78.42
2022-11-26T17:27:50.924Z,78.48
2022-11-26T17:29:57.555Z,78.32
2022-11-26T17:32:01.751Z,78.13
2022-11-26T17:34:03.914Z,78.38
2022-11-26T17:36:16.966Z,77.76
2022-11-26T17:38:22.300Z,78.02
2022-11-26T17:40:27.390Z,78.23
2022-11-26T17:42:33.579Z,77.98
2022-11-26T17:44:43.590Z,78.31
2022-11-26T17:47:09.543Z,78.35
2022-11-26T17:49:16.254Z,78.43
2022-11-26T17:51:19.925Z,78.50
2022-11-26T17:53:25.117Z,78.57
2022-11-26T17:55:33.960Z,78.45
2022-11-26T17:57:36.392Z,78.01
2022-11-26T17:59:40.012Z,78.84
2022-11-26T18:01:43.713Z,78.38
2022-11-26T18:03:46.414Z,78.92
2022-11-26T18:05:48.428Z,78.66
2022-11-26T18:07:50.969Z,78.39
2022-11-26T18:09:53.238Z,78.93
2022-11-26T18:11:56.451Z,78.74
2022-11-26T18:13:58.500Z,78.61
2022-11-26T18:16:00.857Z,78.63
2022-11-26T18:18:03.255Z,78.85
2022-11-26T18:20:06.084Z,78.77
2022-11-26T18:22:15.399Z,78.52
2022-11-26T18:24:21.205Z,78.44
2022-11-26T18:26:23.134Z,78.50
2022-11-26T18:28:25.250Z,78.94
2022-11-26T18:30:27.673Z,78.41
2022-11-26T18:32:31.207Z,78.80
2022-11-26T18:34:33.283Z,78.72
2022-11-26T18:36:48.214Z,78.97
2022-11-26T18:38:57.909Z,78.61
2022-11-26T18:41:08.565Z,78.46
2022-11-26T18:43:12.363Z,78.49
2022-11-26T18:45:18.484Z,78.47
2022-11-26T18:47:21.090Z,78.00
2022-11-26T18:49:23.376Z,78.37
2022-11-26T18:51:30.275Z,78.42
2022-11-26T18:53:32.990Z,77.94
2022-11-26T18:55:39.585Z,78.54
2022-11-26T18:57:42.056Z,78.12
2022-11-26T18:59:47.496Z,78.04
2022-11-26T19:01:51.145Z,78.51
2022-11-26T19:03:55.836Z,78.10
2022-11-26T19:05:59.116Z,78.38
2022-11-26T19:08:03.434Z,78.52
2022-11-26T19:10:06.139Z,78.67
2022-11-26T19:12:08.498Z,78.73
2022-11-26T19:14:13.862Z,78.16
2022-11-26T19:16:18.095Z,78.37
2022-11-26T19:18:20.661Z,78.34
2022-11-26T19:20:23.268Z,78.30
2022-11-26T19:22:25.301Z,77.94
2022-11-26T19:24:29.090Z,78.16
2022-11-26T19:26:31.740Z,78.30
2022-11-26T19:28:33.865Z,78.13
2022-11-26T19:30:37.855Z,78.43
2022-11-26T19:32:40.789Z,78.43
2022-11-26T19:34:43.140Z,78.28
2022-11-26T19:36:48.970Z,78.40
2022-11-26T19:38:56.560Z,78.19
2022-11-26T19:41:00.613Z,78.28
2022-11-26T19:43:02.915Z,78.56
2022-11-26T19:45:05.506Z,78.31
2022-11-26T19:47:07.872Z,78.38
2022-11-26T19:49:13.529Z,78.31
2022-11-26T19:51:17.669Z,78.44
2022-11-26T19:53:20.043Z,78.76
2022-11-26T19:55:23.744Z,78.60
2022-11-26T19:57:26.560Z,78.46
2022-11-26T19:59:29.310Z,78.62
2022-11-26T20:01:35.154Z,78.94
2022-11-26T20:03:37.953Z,78.33
2022-11-26T20:05:40.828Z,78.35
2022-11-26T20:07:45.787Z,78.44
2022-11-26T20:09:51.926Z,78.52
2022-11-26T20:11:54.194Z,79.01
2022-11-26T20:13:57.461Z,78.31
2022-11-26T20:16:00.554Z,78.44
2022-11-26T20:18:02.911Z,78.76
2022-11-26T20:20:05.443Z,78.39
2022-11-26T20:22:07.834Z,78.80
2022-11-26T20:24:14.972Z,78.45
2022-11-26T20:26:19.587Z,78.81
2022-11-26T20:28:22.452Z,78.70
2022-11-26T20:30:26.548Z,78.91
2022-11-26T20:32:28.473Z,78.76
2022-11-26T20:34:33.805Z,78.93
2022-11-26T20:36:38.219Z,79.05
2022-11-26T20:38:40.604Z,78.97
2022-11-26T20:40:43.814Z,78.81
2022-11-26T20:42:46.943Z,78.84
2022-11-26T20:44:49.432Z,79.08
2022-11-26T20:46:52.457Z,79.21
2022-11-26T20:48:54.831Z,79.49
2022-11-26T20:51:01.590Z,78.99
2022-11-26T20:53:04.847Z,79.25
2022-11-26T20:55:07.965Z,79.09
2022-11-26T20:57:10.187Z,79.49
2022-11-26T20:59:12.655Z,79.53
2022-11-26T21:01:29.099Z,79.44
2022-11-26T21:03:32.220Z,79.24
2022-11-26T21:05:34.412Z,79.03
2022-11-26T21:07:38.594Z,79.44
2022-11-26T21:09:42.646Z,79.23
2022-11-26T21:11:46.618Z,79.56
2022-11-26T21:13:48.951Z,79.90
2022-11-26T21:15:51.338Z,79.94
2022-11-26T21:17:54.362Z,79.82
2022-11-26T21:19:56.520Z,80.24
2022-11-26T21:21:58.417Z,79.96
2022-11-26T21:24:04.695Z,80.36
2022-11-26T21:26:11.909Z,80.32
2022-11-26T21:28:15.092Z,80.46
2022-11-26T21:30:17.683Z,80.15
2022-11-26T21:32:19.585Z,80.14
2022-11-26T21:34:21.527Z,80.42
2022-11-26T21:36:24.948Z,80.68
2022-11-26T21:38:27.001Z,80.76
2022-11-26T21:40:29.321Z,80.21
2022-11-26T21:42:31.258Z,80.58
2022-11-26T21:44:33.621Z,80.50
2022-11-26T21:46:38.634Z,80.45
2022-11-26T21:48:40.939Z,80.07
2022-11-26T21:50:42.939Z,80.43
2022-11-26T21:52:45.181Z,80.44
2022-11-26T21:54:48.457Z,80.66
2022-11-26T21:56:50.503Z,80.14
2022-11-26T21:58:52.880Z,80.63
2022-11-26T22:00:57.316Z,80.51
2022-11-26T22:02:59.511Z,80.63
2022-11-26T22:05:01.514Z,80.00
2022-11-26T22:07:04.069Z,80.02
2022-11-26T22:09:06.399Z,80.33
2022-11-26T22:11:14.036Z,79.83
2022-11-26T22:13:16.156Z,80.41
2022-11-26T22:15:18.335Z,79.64
2022-11-26T22:17:20.425Z,80.17
2022-11-26T22:19:22.497Z,79.98
2022-11-26T22:21:25.942Z,79.82
2022-11-26T22:23:30.877Z,80.72
2022-11-26T22:25:33.808Z,80.34
2022-11-26T22:27:35.739Z,79.59
2022-11-26T22:29:38.236Z,80.29
2022-11-26T22:31:40.843Z,79.91
2022-11-26T22:33:42.956Z,80.28
2022-11-26T22:35:45.049Z,79.70
2022-11-26T22:37:46.913Z,79.80
2022-11-26T22:39:53.625Z,79.75
2022-11-26T22:41:55.879Z,80.07
2022-11-26T22:44:03.768Z,79.77
2022-11-26T22:46:07.616Z,79.85
2022-11-26T22:48:12.050Z,80.16
2022-11-26T22:50:16.316Z,79.60
2022-11-26T22:52:18.423Z,79.87
2022-11-26T22:54:21.509Z,80.10
2022-11-26T22:56:23.805Z,79.65
2022-11-26T22:58:30.295Z,79.95
2022-11-26T23:01:07.866Z,79.95
2022-11-26T23:03:09.973Z,81.35
2022-11-26T23:05:12.003Z,81.53
2022-11-26T23:07:15.107Z,82.10
2022-11-26T23:09:17.185Z,81.59
2022-11-26T23:11:25.487Z,82.03
2022-11-26T23:13:27.465Z,81.93
2022-11-26T23:15:29.573Z,82.08
2022-11-26T23:17:31.477Z,82.15
2022-11-26T23:19:33.496Z,82.16
2022-11-26T23:21:40.094Z,81.80
2022-11-26T23:23:43.182Z,82.43
2022-11-26T23:25:45.191Z,82.49
2022-11-26T23:27:47.806Z,82.33
2022-11-26T23:29:49.879Z,82.05
2022-11-26T23:31:51.886Z,82.32
2022-11-26T23:33:53.990Z,81.87
2022-11-26T23:35:56.866Z,82.18
2022-11-26T23:37:58.804Z,81.95
2022-11-26T23:40:00.825Z,82.25
2022-11-26T23:42:02.886Z,81.95
2022-11-26T23:44:05.088Z,82.69
2022-11-26T23:46:28.221Z,82.07
2022-11-26T23:48:30.818Z,82.47
2022-11-26T23:50:33.996Z,82.00
2022-11-26T23:52:36.533Z,82.14
2022-11-26T23:54:38.459Z,82.17
2022-11-26T23:56:44.581Z,82.23
2022-11-26T23:59:00.536Z,82.61
